Time;durP1;ratioP1;P1;durP2;ratioP2;P2;SDS_P1;SDS_P2;PMS_P1;PMS_P2;Temp;Humidity;BMP_temperature;BMP_pressure;BME280_temperature;BME280_humidity;BME280_pressure;Samples;Min_cycle;Max_cycle;Signal;HPM_P1;HPM_P2
2022/05/25 00:01:49;;;;;;;4.60;2.13;;;16.10;99.90;;;;;;5029830;28;20068;-68
2022/05/25 00:04:17;;;;;;;3.83;2.03;;;16.00;99.90;;;;;;5029158;28;20416;-67
2022/05/25 00:06:45;;;;;;;7.13;1.88;;;16.00;99.90;;;;;;5030372;28;20050;-68
2022/05/25 00:09:12;;;;;;;5.00;2.10;;;16.00;99.90;;;;;;5028904;28;20045;-68
2022/05/25 00:11:40;;;;;;;3.17;1.55;;;15.90;99.90;;;;;;5030028;28;20124;-69
2022/05/25 00:14:07;;;;;;;5.88;1.92;;;15.90;99.90;;;;;;5033123;28;20480;-67
2022/05/25 00:16:34;;;;;;;6.28;1.90;;;16.00;99.90;;;;;;5030084;28;20613;-68
2022/05/25 00:21:48;;;;;;;6.60;2.15;;;16.00;99.90;;;;;;5022633;28;20477;-68
2022/05/25 00:24:16;;;;;;;4.07;2.17;;;16.00;99.90;;;;;;5029882;28;20044;-68
2022/05/25 00:26:43;;;;;;;4.15;1.80;;;16.00;99.90;;;;;;5031535;28;20461;-68
2022/05/25 00:29:10;;;;;;;3.50;1.92;;;15.90;99.90;;;;;;5030127;28;20058;-67
2022/05/25 00:31:37;;;;;;;3.85;1.70;;;15.90;99.90;;;;;;5029165;28;20055;-68
2022/05/25 00:34:05;;;;;;;5.25;1.80;;;16.00;99.90;;;;;;5026364;28;20041;-68
2022/05/25 00:36:33;;;;;;;4.18;1.95;;;16.00;99.90;;;;;;5029989;28;20048;-68
2022/05/25 00:39:04;;;;;;;4.25;1.83;;;15.90;99.90;;;;;;5032552;28;20064;-68
2022/05/25 00:41:32;;;;;;;2.55;1.60;;;15.80;99.90;;;;;;5027909;28;20041;-68
2022/05/25 00:44:00;;;;;;;4.47;2.10;;;15.70;99.90;;;;;;5032563;28;20413;-68
2022/05/25 00:46:29;;;;;;;5.78;1.77;;;15.70;99.90;;;;;;5028127;28;20512;-68
2022/05/25 00:49:04;;;;;;;3.70;1.80;;;15.70;99.90;;;;;;5034173;28;20068;-68
2022/05/25 00:52:01;;;;;;;3.40;1.65;;;15.60;99.90;;;;;;5035025;28;20132;-67
2022/05/25 00:54:33;;;;;;;2.88;1.90;;;15.60;99.90;;;;;;5029681;28;20592;-67
2022/05/25 00:57:04;;;;;;;;;;;15.50;99.90;;;;;;5033448;28;20408;-67
2022/05/25 00:59:34;;;;;;;3.65;1.80;;;15.40;99.90;;;;;;5029258;28;19920;-67
2022/05/25 01:02:02;;;;;;;6.43;2.22;;;15.30;99.90;;;;;;5029106;28;20045;-67
2022/05/25 01:04:29;;;;;;;3.15;1.67;;;15.30;99.90;;;;;;5029752;28;20548;-67
2022/05/25 01:07:20;;;;;;;2.90;1.88;;;15.30;99.90;;;;;;5029184;28;20055;-67
2022/05/25 01:10:10;;;;;;;5.10;2.22;;;15.30;99.90;;;;;;5044123;28;20041;-67
2022/05/25 01:13:07;;;;;;;3.70;2.30;;;15.20;99.90;;;;;;5046150;28;20561;-68
2022/05/25 01:15:59;;;;;;;4.82;2.80;;;15.20;99.90;;;;;;5048306;28;20044;-67
2022/05/25 01:18:48;;;;;;;;;;;15.20;99.90;;;;;;5023836;28;20049;-68
2022/05/25 01:21:44;;;;;;;4.13;2.72;;;15.10;99.90;;;;;;5038887;28;19929;-67
2022/05/25 01:24:35;;;;;;;5.30;2.88;;;15.10;99.90;;;;;;5031138;28;20073;-67
2022/05/25 01:27:31;;;;;;;5.35;3.00;;;15.10;99.90;;;;;;5030072;28;20576;-67
2022/05/25 01:30:17;;;;;;;5.65;2.47;;;15.10;99.90;;;;;;5031071;28;20477;-67
2022/05/25 01:32:57;;;;;;;5.63;2.85;;;15.10;99.90;;;;;;5031708;28;20051;-67
2022/05/25 01:35:32;;;;;;;6.22;3.13;;;15.10;99.90;;;;;;5033059;28;20041;-68
2022/05/25 01:38:42;;;;;;;5.68;2.75;;;15.00;99.90;;;;;;5033830;28;20506;-67
2022/05/25 01:41:20;;;;;;;6.55;2.47;;;15.00;99.90;;;;;;5033411;28;20055;-68
2022/05/25 01:43:57;;;;;;;4.53;2.45;;;15.00;99.90;;;;;;5047836;28;20459;-68
2022/05/25 01:46:58;;;;;;;4.53;2.67;;;15.00;99.90;;;;;;5037491;28;20060;-67
2022/05/25 01:49:40;;;;;;;4.90;2.78;;;15.00;99.90;;;;;;5032869;28;20416;-68
2022/05/25 01:52:13;;;;;;;3.83;2.55;;;15.00;99.90;;;;;;5047974;28;20041;-67
2022/05/25 01:54:48;;;;;;;3.85;2.60;;;15.00;99.90;;;;;;5049853;28;20578;-67
2022/05/25 01:57:16;;;;;;;3.83;2.40;;;15.00;99.90;;;;;;5044545;28;20411;-67
2022/05/25 01:59:44;;;;;;;5.05;2.60;;;14.90;99.90;;;;;;5028719;28;20061;-68
2022/05/25 02:05:02;;;;;;;4.18;2.70;;;15.00;99.90;;;;;;5058865;28;20537;-67
2022/05/25 02:07:39;;;;;;;6.45;2.95;;;15.00;99.90;;;;;;5049299;28;20446;-68
2022/05/25 02:10:25;;;;;;;6.97;2.90;;;14.90;99.90;;;;;;5045492;28;20057;-68
2022/05/25 02:13:23;;;;;;;5.45;2.83;;;14.90;99.90;;;;;;5030373;28;20049;-68
2022/05/25 02:16:12;;;;;;;5.00;2.50;;;14.80;99.90;;;;;;5042094;28;20048;-69
2022/05/25 02:18:44;;;;;;;4.70;2.83;;;14.80;99.90;;;;;;5027812;28;20598;-67
2022/05/25 02:21:25;;;;;;;8.02;3.10;;;14.80;99.90;;;;;;5026348;28;20103;-67
2022/05/25 02:24:09;;;;;;;5.55;2.88;;;14.70;99.90;;;;;;5026513;28;20051;-68
2022/05/25 02:26:51;;;;;;;4.97;3.20;;;14.60;99.90;;;;;;5027061;28;20078;-67
2022/05/25 02:29:42;;;;;;;5.35;3.40;;;14.60;99.90;;;;;;5039149;28;20583;-68
2022/05/25 02:32:27;;;;;;;5.75;3.28;;;14.60;99.90;;;;;;5030478;28;20121;-68
2022/05/25 02:34:56;;;;;;;5.28;2.90;;;14.70;99.90;;;;;;5038190;28;20037;-67
2022/05/25 02:37:26;;;;;;;5.53;2.97;;;14.70;99.90;;;;;;5032326;28;20424;-68
2022/05/25 02:39:54;;;;;;;6.57;3.53;;;14.70;99.90;;;;;;5038289;28;20472;-67
2022/05/25 02:42:21;;;;;;;7.07;3.58;;;14.60;99.90;;;;;;5033293;28;20120;-68
2022/05/25 02:44:49;;;;;;;12.73;7.85;;;14.60;99.90;;;;;;5036291;28;20559;-68
2022/05/25 02:47:16;;;;;;;11.23;7.30;;;14.60;99.90;;;;;;5033556;28;20448;-68
2022/05/25 02:49:44;;;;;;;7.22;4.43;;;14.60;99.90;;;;;;5039881;28;20088;-68
2022/05/25 02:52:12;;;;;;;6.53;4.25;;;14.70;99.90;;;;;;5034696;28;20564;-68
2022/05/25 02:54:39;;;;;;;8.05;4.03;;;14.60;99.90;;;;;;5038744;28;20045;-68
2022/05/25 02:57:07;;;;;;;6.20;3.78;;;14.70;99.90;;;;;;5036085;28;20049;-68
2022/05/25 02:59:35;;;;;;;5.72;3.13;;;14.60;99.90;;;;;;5041025;28;20077;-67
2022/05/25 03:02:04;;;;;;;7.13;4.20;;;14.60;99.90;;;;;;5029889;28;20055;-67
2022/05/25 03:04:34;;;;;;;8.32;4.82;;;14.60;99.90;;;;;;5029415;28;20048;-67
2022/05/25 03:07:01;;;;;;;7.45;4.38;;;14.60;99.90;;;;;;5029341;28;20065;-67
2022/05/25 03:09:29;;;;;;;6.72;4.07;;;14.60;99.90;;;;;;5029722;28;20515;-67
2022/05/25 03:11:56;;;;;;;4.78;3.45;;;14.60;99.90;;;;;;5029036;28;20045;-67
2022/05/25 03:14:24;;;;;;;5.53;3.03;;;14.60;99.90;;;;;;5020362;28;20092;-68
2022/05/25 03:16:51;;;;;;;8.90;3.90;;;14.60;99.90;;;;;;5032859;28;20052;-68
2022/05/25 03:19:19;;;;;;;11.95;8.27;;;14.60;99.90;;;;;;5045289;28;20055;-67
2022/05/25 03:21:47;;;;;;;12.35;7.20;;;14.50;99.90;;;;;;5036926;28;20033;-67
2022/05/25 03:24:14;;;;;;;10.38;5.38;;;14.60;99.90;;;;;;5017553;28;20486;-67
2022/05/25 03:26:42;;;;;;;6.68;3.47;;;14.60;99.90;;;;;;5030267;28;20041;-67
2022/05/25 03:29:11;;;;;;;6.22;3.63;;;14.50;99.90;;;;;;5039793;28;20071;-67
2022/05/25 03:31:38;;;;;;;7.05;3.40;;;14.50;99.90;;;;;;5036214;28;20185;-68
2022/05/25 03:34:06;;;;;;;7.45;3.75;;;14.40;99.90;;;;;;5035927;28;20059;-67
2022/05/25 03:36:33;;;;;;;8.73;5.20;;;14.40;99.90;;;;;;5028315;28;20045;-67
2022/05/25 03:39:00;;;;;;;6.28;3.97;;;14.40;99.90;;;;;;5028181;28;20041;-67
2022/05/25 03:41:28;;;;;;;7.60;3.30;;;14.40;99.90;;;;;;5031504;28;20132;-67
2022/05/25 03:43:55;;;;;;;13.48;10.13;;;14.40;99.90;;;;;;5032242;28;20052;-67
2022/05/25 03:46:22;;;;;;;8.88;5.50;;;14.50;99.90;;;;;;5038486;28;20034;-67
2022/05/25 03:48:50;;;;;;;7.47;4.75;;;14.50;99.90;;;;;;5032977;28;20124;-67
2022/05/25 03:51:17;;;;;;;6.97;4.32;;;14.50;99.90;;;;;;5034933;28;20457;-67
2022/05/25 03:53:44;;;;;;;5.03;2.97;;;14.60;99.90;;;;;;5033430;28;20042;-67
2022/05/25 03:56:12;;;;;;;5.20;2.85;;;14.50;99.90;;;;;;5034675;28;20512;-67
2022/05/25 03:58:39;;;;;;;4.93;3.00;;;14.50;99.90;;;;;;5039163;28;20056;-68
2022/05/25 04:01:06;;;;;;;4.93;3.35;;;14.50;99.90;;;;;;5037197;28;20048;-67
2022/05/25 04:03:33;;;;;;;5.10;3.20;;;14.50;99.90;;;;;;5030941;28;20041;-68
2022/05/25 04:06:01;;;;;;;5.82;3.60;;;14.40;99.90;;;;;;5029536;28;20124;-68
2022/05/25 04:08:28;;;;;;;7.55;3.30;;;14.40;99.90;;;;;;5031007;28;20037;-68
2022/05/25 04:10:55;;;;;;;7.45;3.80;;;14.30;99.90;;;;;;5030441;28;20069;-68
2022/05/25 04:13:22;;;;;;;6.00;3.10;;;14.30;99.90;;;;;;5031053;28;20056;-68
2022/05/25 04:15:50;;;;;;;4.32;2.47;;;14.30;99.90;;;;;;5027545;28;20300;-68
2022/05/25 04:18:17;;;;;;;7.18;2.10;;;14.20;99.90;;;;;;5030198;28;20107;-68
2022/05/25 04:20:44;;;;;;;3.85;1.80;;;14.20;99.90;;;;;;5029569;28;20079;-68
2022/05/25 04:23:11;;;;;;;5.38;1.95;;;14.10;99.90;;;;;;5030560;28;20555;-68
2022/05/25 04:25:40;;;;;;;5.70;1.88;;;14.10;99.90;;;;;;5023649;28;20412;-68
2022/05/25 04:28:08;;;;;;;7.18;2.00;;;14.20;99.90;;;;;;5026096;28;20574;-68
2022/05/25 04:30:36;;;;;;;5.03;2.22;;;14.20;99.90;;;;;;5040658;28;20048;-68
2022/05/25 04:33:03;;;;;;;7.82;2.20;;;14.10;99.90;;;;;;5041605;28;20053;-68
2022/05/25 04:35:30;;;;;;;3.30;2.05;;;14.20;99.90;;;;;;5036008;28;20050;-68
2022/05/25 04:37:57;;;;;;;4.47;2.70;;;14.20;99.90;;;;;;5026404;28;20045;-68
2022/05/25 04:40:34;;;;;;;4.55;2.15;;;14.10;99.90;;;;;;5026862;28;20073;-68
2022/05/25 04:43:07;;;;;;;3.72;2.00;;;14.10;99.90;;;;;;5036616;28;20057;-68
2022/05/25 04:45:38;;;;;;;5.25;2.50;;;14.10;99.90;;;;;;5038500;28;20069;-68
2022/05/25 04:48:06;;;;;;;3.95;2.25;;;14.10;99.90;;;;;;5043719;28;20041;-68
2022/05/25 04:50:41;;;;;;;5.35;2.65;;;14.10;99.90;;;;;;5038861;28;20045;-68
2022/05/25 04:53:11;;;;;;;7.18;2.55;;;14.10;99.90;;;;;;5042682;28;20140;-68
2022/05/25 04:58:38;;;;;;;9.20;2.45;;;14.10;99.90;;;;;;5035217;28;20048;-68
2022/05/25 05:01:07;;;;;;;4.38;2.42;;;14.10;99.90;;;;;;5038245;28;20080;-67
2022/05/25 05:03:36;;;;;;;8.27;3.40;;;14.10;99.90;;;;;;5025420;28;20670;-66
2022/05/25 05:06:06;;;;;;;12.02;5.30;;;14.20;99.90;;;;;;5025072;28;20038;-67
2022/05/25 05:08:34;;;;;;;9.18;4.55;;;14.20;99.90;;;;;;5034091;28;20444;-67
2022/05/25 05:11:14;;;;;;;6.70;3.53;;;14.20;99.90;;;;;;5028859;28;20045;-68
2022/05/25 05:13:41;;;;;;;7.28;3.75;;;14.20;99.90;;;;;;5029731;28;20507;-68
2022/05/25 05:16:14;;;;;;;8.88;3.58;;;14.20;99.90;;;;;;5029072;28;20334;-68
2022/05/25 05:18:43;;;;;;;10.25;5.75;;;14.20;99.90;;;;;;5027885;28;20049;-69
2022/05/25 05:21:23;;;;;;;7.47;4.40;;;14.20;99.90;;;;;;5011686;28;20037;-68
2022/05/25 05:23:50;;;;;;;8.38;3.90;;;14.30;99.90;;;;;;5028331;28;20115;-68
2022/05/25 05:26:18;;;;;;;6.55;3.10;;;14.30;99.90;;;;;;5028852;28;20516;-67
2022/05/25 05:28:45;;;;;;;5.10;2.65;;;14.30;99.90;;;;;;5029466;28;20509;-67
2022/05/25 05:31:14;;;;;;;5.25;2.90;;;14.30;99.90;;;;;;5043324;28;20139;-67
2022/05/25 05:33:42;;;;;;;6.00;2.78;;;14.20;99.90;;;;;;5027039;28;20464;-67
2022/05/25 05:36:17;;;;;;;6.78;2.70;;;14.20;99.90;;;;;;5025615;28;20075;-68
2022/05/25 05:38:49;;;;;;;5.70;3.20;;;14.10;99.90;;;;;;5036772;28;20479;-67
2022/05/25 05:41:20;;;;;;;5.95;2.75;;;14.20;99.90;;;;;;5033419;28;20156;-67
2022/05/25 05:43:48;;;;;;;6.32;2.50;;;14.30;99.90;;;;;;5031455;28;20045;-68
2022/05/25 05:46:16;;;;;;;9.00;4.00;;;14.30;99.90;;;;;;5028495;28;20092;-67
2022/05/25 05:48:45;;;;;;;4.75;2.78;;;14.30;99.90;;;;;;5034998;28;20045;-67
2022/05/25 05:51:12;;;;;;;7.32;2.67;;;14.30;99.90;;;;;;5036810;28;20563;-67
2022/05/25 05:53:40;;;;;;;5.22;2.55;;;14.30;99.90;;;;;;5028316;28;20049;-67
2022/05/25 05:56:08;;;;;;;6.18;3.30;;;14.20;99.90;;;;;;5028381;28;20042;-67
2022/05/25 05:58:36;;;;;;;10.75;2.58;;;14.30;99.90;;;;;;5028571;28;20075;-67
2022/05/25 06:01:03;;;;;;;9.38;3.03;;;14.40;99.90;;;;;;5039945;28;20041;-67
2022/05/25 06:03:30;;;;;;;11.10;2.90;;;14.40;99.90;;;;;;5027311;28;20855;-66
2022/05/25 06:05:59;;;;;;;11.25;2.78;;;14.40;99.90;;;;;;5036985;28;20034;-67
2022/05/25 06:08:27;;;;;;;7.35;3.28;;;14.50;99.90;;;;;;5034663;28;20102;-68
2022/05/25 06:10:58;;;;;;;5.82;3.10;;;14.60;99.90;;;;;;5031057;28;20052;-67
2022/05/25 06:13:25;;;;;;;7.90;2.88;;;14.50;99.90;;;;;;5032880;28;20120;-67
2022/05/25 06:21:26;;;;;;;4.90;2.35;;;14.60;99.90;;;;;;5028220;28;20128;-68
2022/05/25 06:23:54;;;;;;;6.57;2.97;;;14.60;99.90;;;;;;5026474;28;20045;-67
2022/05/25 06:26:25;;;;;;;6.90;2.78;;;14.70;99.90;;;;;;5032321;28;20072;-67
2022/05/25 06:28:53;;;;;;;5.50;2.65;;;14.70;99.90;;;;;;5026823;28;20143;-67
2022/05/25 06:31:20;;;;;;;10.63;2.92;;;14.70;99.90;;;;;;5026771;28;20051;-68
2022/05/25 06:33:48;;;;;;;4.75;2.35;;;14.80;99.90;;;;;;5032051;28;20076;-68
2022/05/25 06:36:24;;;;;;;6.03;2.42;;;14.80;99.90;;;;;;5031989;28;20044;-67
2022/05/25 06:38:52;;;;;;;8.15;3.03;;;15.00;99.90;;;;;;5029891;28;20076;-68
2022/05/25 06:41:20;;;;;;;4.72;2.80;;;15.00;99.90;;;;;;5026140;28;20070;-68
2022/05/25 06:43:48;;;;;;;5.32;2.13;;;15.20;99.90;;;;;;5025025;28;20477;-67
2022/05/25 06:46:19;;;;;;;5.82;3.20;;;15.20;99.90;;;;;;5028000;28;20129;-67
2022/05/25 06:48:52;;;;;;;5.97;3.53;;;15.40;99.90;;;;;;5028817;28;20041;-68
2022/05/25 06:51:31;;;;;;;5.72;2.50;;;15.60;99.90;;;;;;5035694;28;20070;-68
2022/05/25 06:54:05;;;;;;;14.82;7.03;;;15.70;99.90;;;;;;5029962;28;20045;-67
2022/05/25 06:56:33;;;;;;;5.45;3.30;;;15.80;99.90;;;;;;5038172;28;20174;-68
2022/05/25 06:59:01;;;;;;;5.82;2.92;;;16.00;99.90;;;;;;5039709;28;20051;-68
2022/05/25 07:01:28;;;;;;;7.22;3.47;;;16.20;99.90;;;;;;5040329;28;20432;-68
2022/05/25 07:03:55;;;;;;;6.00;3.40;;;16.20;99.90;;;;;;5042938;28;20476;-68
2022/05/25 07:06:24;;;;;;;5.80;2.72;;;16.40;99.90;;;;;;5034443;28;20038;-68
2022/05/25 07:08:53;;;;;;;9.43;2.60;;;16.50;99.90;;;;;;5040632;28;20034;-67
2022/05/25 07:11:25;;;;;;;9.55;3.00;;;16.70;99.90;;;;;;5040083;28;20504;-67
2022/05/25 07:13:52;;;;;;;;;;;16.60;99.90;;;;;;5048156;28;20061;-67
2022/05/25 07:16:21;;;;;;;7.50;2.38;;;16.70;99.90;;;;;;5046644;28;19991;-67
2022/05/25 07:18:49;;;;;;;5.72;2.55;;;16.90;99.90;;;;;;5043825;28;20049;-68
2022/05/25 07:21:25;;;;;;;13.48;3.13;;;16.80;99.90;;;;;;5037040;28;20045;-67
2022/05/25 07:23:55;;;;;;;6.22;2.70;;;16.80;99.90;;;;;;5043577;28;20516;-67
2022/05/25 07:26:25;;;;;;;5.20;2.28;;;16.70;99.90;;;;;;5036005;28;20455;-67
2022/05/25 07:28:53;;;;;;;5.38;1.98;;;16.70;99.90;;;;;;5040558;28;20047;-67
2022/05/25 07:31:31;;;;;;;5.70;2.00;;;16.70;99.90;;;;;;5033465;28;20061;-68
2022/05/25 07:34:04;;;;;;;6.63;2.03;;;16.80;99.90;;;;;;5032740;28;20416;-68
2022/05/25 07:36:35;;;;;;;4.13;1.75;;;16.60;99.90;;;;;;5030628;28;20471;-67
2022/05/25 07:39:11;;;;;;;5.65;1.70;;;16.50;99.90;;;;;;5036337;28;20504;-68
2022/05/25 07:41:42;;;;;;;4.97;1.95;;;16.50;99.90;;;;;;5032537;28;20131;-67
2022/05/25 07:44:14;;;;;;;5.20;1.90;;;16.30;99.90;;;;;;5031610;28;20053;-67
2022/05/25 07:46:41;;;;;;;4.85;1.98;;;16.10;99.90;;;;;;5030401;28;20365;-66
2022/05/25 07:49:10;;;;;;;6.80;2.58;;;16.00;99.90;;;;;;5032244;28;20406;-67
2022/05/25 07:51:39;;;;;;;7.57;4.03;;;16.00;99.90;;;;;;5032773;28;20049;-67
2022/05/25 07:54:06;;;;;;;5.07;2.60;;;16.00;99.90;;;;;;5036001;28;20091;-68
2022/05/25 07:56:36;;;;;;;4.82;2.33;;;16.00;99.90;;;;;;5032542;28;20426;-68
2022/05/25 07:59:07;;;;;;;4.05;1.95;;;16.00;99.90;;;;;;5028298;28;20064;-68
2022/05/25 08:07:15;;;;;;;3.63;1.40;;;16.30;99.90;;;;;;5028501;28;20476;-68
2022/05/25 08:09:43;;;;;;;5.07;1.60;;;16.30;99.90;;;;;;5035607;28;20448;-67
2022/05/25 08:12:11;;;;;;;4.57;1.63;;;16.40;99.90;;;;;;5037508;28;20586;-68
2022/05/25 08:14:39;;;;;;;4.68;1.77;;;16.40;99.90;;;;;;5031812;28;20364;-67
2022/05/25 08:17:09;;;;;;;7.70;2.03;;;16.30;99.90;;;;;;5047097;28;20089;-67
2022/05/25 08:19:38;;;;;;;4.03;1.45;;;16.30;99.90;;;;;;5043542;28;20045;-67
2022/05/25 08:22:07;;;;;;;11.68;1.70;;;16.50;99.90;;;;;;5046398;28;20040;-67
2022/05/25 08:24:35;;;;;;;4.93;1.60;;;16.80;99.90;;;;;;5038306;28;20496;-67
2022/05/25 08:27:05;;;;;;;6.43;1.70;;;17.30;99.90;;;;;;5040678;28;20593;-66
2022/05/25 08:29:33;;;;;;;4.55;2.00;;;17.40;99.90;;;;;;5030948;28;20504;-66
2022/05/25 08:32:00;;;;;;;8.63;2.10;;;17.50;99.90;;;;;;5028522;28;20050;-67
2022/05/25 08:34:29;;;;;;;4.82;2.28;;;17.20;99.90;;;;;;5027818;28;20566;-67
2022/05/25 08:36:56;;;;;;;4.15;1.58;;;17.50;99.90;;;;;;5044844;28;20041;-67
2022/05/25 08:39:23;;;;;;;8.68;1.92;;;17.60;99.90;;;;;;5045697;28;20080;-67
2022/05/25 08:41:55;;;;;;;6.03;1.40;;;17.70;99.90;;;;;;5046129;28;20052;-67
2022/05/25 08:44:23;;;;;;;6.28;2.13;;;17.90;99.90;;;;;;5049009;28;20041;-67
2022/05/25 08:46:55;;;;;;;6.28;1.80;;;18.30;99.90;;;;;;5034339;28;20412;-67
2022/05/25 08:49:24;;;;;;;5.18;1.33;;;18.80;99.90;;;;;;5038336;28;20672;-67
2022/05/25 08:51:57;;;;;;;6.68;1.60;;;19.00;99.90;;;;;;5034067;28;20104;-67
2022/05/25 08:54:27;;;;;;;6.35;1.70;;;19.30;99.90;;;;;;5016548;28;20132;-66
2022/05/25 08:56:55;;;;;;;3.13;1.40;;;19.80;99.90;;;;;;5026221;28;20045;-66
2022/05/25 08:59:30;;;;;;;3.53;1.48;;;20.20;99.90;;;;;;5034061;28;20581;-67
2022/05/25 09:02:29;;;;;;;2.83;1.30;;;20.00;99.90;;;;;;5035766;28;20515;-67
2022/05/25 09:05:07;;;;;;;5.82;2.00;;;20.00;99.90;;;;;;5022128;28;20148;-67
2022/05/25 09:08:12;;;;;;;16.08;2.30;;;20.00;99.90;;;;;;5034643;28;20069;-67
2022/05/25 09:10:47;;;;;;;6.18;1.75;;;20.50;99.90;;;;;;5035731;28;20585;-66
2022/05/25 09:13:28;;;;;;;5.22;1.20;;;20.80;99.90;;;;;;5028029;28;20046;-67
2022/05/25 09:19:08;;;;;;;2.72;1.20;;;20.90;99.90;;;;;;5029318;28;20505;-67
2022/05/25 09:21:47;;;;;;;3.60;1.08;;;20.50;99.90;;;;;;5033467;28;20049;-67
2022/05/25 09:24:19;;;;;;;3.33;1.10;;;20.30;99.90;;;;;;5038727;28;20110;-67
2022/05/25 09:26:47;;;;;;;3.83;1.13;;;19.80;99.90;;;;;;5038987;28;20132;-67
2022/05/25 09:29:15;;;;;;;4.10;1.23;;;19.90;99.90;;;;;;5026537;28;20167;-67
2022/05/25 09:31:58;;;;;;;6.00;1.40;;;20.00;99.90;;;;;;5022288;28;20152;-67
2022/05/25 09:34:50;;;;;;;3.70;1.35;;;20.10;99.90;;;;;;5024489;28;20077;-67
2022/05/25 09:37:39;;;;;;;4.22;1.30;;;19.80;99.90;;;;;;5026121;28;20073;-67
2022/05/25 09:40:44;;;;;;;2.63;1.05;;;19.80;99.90;;;;;;5030961;28;20099;-67
2022/05/25 09:43:17;;;;;;;4.18;1.13;;;19.80;99.90;;;;;;5023783;28;20591;-67
2022/05/25 09:45:53;;;;;;;5.50;3.40;;;19.70;99.90;;;;;;5025203;28;20046;-67
2022/05/25 09:48:27;;;;;;;4.85;1.40;;;19.90;99.90;;;;;;5027597;28;20061;-67
2022/05/25 09:51:17;;;;;;;2.88;1.10;;;19.70;99.90;;;;;;5038664;28;20136;-67
2022/05/25 09:53:53;;;;;;;3.15;0.90;;;19.80;99.90;;;;;;5030605;28;20046;-67
2022/05/25 09:56:35;;;;;;;3.35;1.33;;;19.80;99.90;;;;;;5028580;28;20171;-67
2022/05/25 09:59:13;;;;;;;2.47;1.20;;;20.40;99.90;;;;;;5030427;28;20064;-67
2022/05/25 10:01:46;;;;;;;5.45;1.20;;;20.60;99.90;;;;;;5025169;28;20124;-67
2022/05/25 10:04:52;;;;;;;3.15;1.20;;;20.40;99.90;;;;;;5030389;28;20060;-67
2022/05/25 10:07:29;;;;;;;5.20;1.40;;;20.50;99.90;;;;;;5022078;28;20048;-66
2022/05/25 10:10:05;;;;;;;2.97;1.13;;;20.70;99.90;;;;;;5041454;28;20488;-68
2022/05/25 10:12:41;;;;;;;3.78;1.10;;;20.60;99.90;;;;;;5021426;28;20581;-66
2022/05/25 10:15:15;;;;;;;2.08;1.05;;;20.90;99.90;;;;;;5041582;28;20140;-67
2022/05/25 10:17:47;;;;;;;2.97;1.20;;;20.50;99.90;;;;;;5031750;28;20049;-68
2022/05/25 10:20:25;;;;;;;2.65;1.33;;;20.10;99.90;;;;;;5039102;28;20060;-67
2022/05/25 10:23:02;;;;;;;5.68;2.42;;;20.10;99.90;;;;;;5026511;28;20095;-67
2022/05/25 10:25:34;;;;;;;2.50;1.17;;;20.20;99.90;;;;;;5017389;28;20041;-67
2022/05/25 10:28:06;;;;;;;3.60;1.38;;;20.20;99.90;;;;;;5029791;28;20467;-66
2022/05/25 10:36:48;;;;;;;4.95;1.08;;;20.30;99.90;;;;;;5037712;28;20079;-67
2022/05/25 10:39:23;;;;;;;2.65;1.10;;;20.20;99.90;;;;;;5015563;28;20057;-68
2022/05/25 10:42:03;;;;;;;3.22;1.10;;;20.00;99.90;;;;;;5016287;28;20030;-67
2022/05/25 10:44:58;;;;;;;1.77;0.90;;;20.10;99.90;;;;;;5030460;28;20042;-67
2022/05/25 10:47:31;;;;;;;4.03;1.20;;;20.30;99.90;;;;;;5025466;28;20095;-67
2022/05/25 10:50:00;;;;;;;3.15;1.10;;;20.60;99.90;;;;;;5027270;28;20803;-67
2022/05/25 10:52:35;;;;;;;2.90;1.30;;;20.80;99.90;;;;;;5026844;28;20049;-67
2022/05/25 10:55:05;;;;;;;4.22;1.15;;;20.40;99.90;;;;;;5026089;28;20080;-67
2022/05/25 10:57:38;;;;;;;5.28;1.10;;;20.50;99.90;;;;;;5026908;28;20140;-67
2022/05/25 11:00:06;;;;;;;5.28;1.20;;;20.60;99.90;;;;;;5028663;28;20080;-68
2022/05/25 11:02:56;;;;;;;2.72;1.00;;;20.40;99.90;;;;;;5026626;28;20075;-68
2022/05/25 11:05:45;;;;;;;4.78;1.25;;;20.50;99.90;;;;;;5028374;28;20152;-68
2022/05/25 11:08:42;;;;;;;2.90;1.00;;;20.90;99.90;;;;;;5016274;28;20030;-68
2022/05/25 11:11:17;;;;;;;3.55;1.20;;;21.10;99.90;;;;;;5027415;28;20068;-68
2022/05/25 11:14:01;;;;;;;2.30;1.00;;;21.30;99.90;;;;;;5028535;28;20061;-69
2022/05/25 11:16:55;;;;;;;4.25;1.00;;;21.20;99.90;;;;;;5024795;28;20038;-68
2022/05/25 11:19:31;;;;;;;3.85;1.08;;;21.50;99.90;;;;;;5026246;28;20068;-68
2022/05/25 11:22:14;;;;;;;3.53;1.20;;;21.50;99.90;;;;;;5026242;28;20099;-67
2022/05/25 11:24:54;;;;;;;4.00;1.38;;;21.80;99.90;;;;;;5029705;28;20168;-68
2022/05/25 11:27:46;;;;;;;3.05;1.10;;;22.00;99.90;;;;;;5029810;28;20555;-68
2022/05/25 11:30:26;;;;;;;;;;;22.00;99.90;;;;;;5013924;28;20523;-68
2022/05/25 11:33:10;;;;;;;3.53;0.90;;;21.10;99.90;;;;;;5026013;28;19925;-67
2022/05/25 11:36:11;;;;;;;3.13;1.30;;;20.70;99.90;;;;;;5028422;28;20092;-68
2022/05/25 11:38:52;;;;;;;3.00;1.20;;;20.60;99.90;;;;;;5035129;28;20060;-68
2022/05/25 11:41:34;;;;;;;3.10;1.02;;;21.00;99.90;;;;;;5033323;28;20592;-68
2022/05/25 11:44:16;;;;;;;5.78;1.30;;;20.80;99.90;;;;;;5021854;28;20124;-68
2022/05/25 11:46:49;;;;;;;2.40;1.15;;;21.10;99.90;;;;;;5033482;28;20056;-68
2022/05/25 11:50:00;;;;;;;3.67;1.10;;;21.10;99.90;;;;;;5033085;28;20515;-68
2022/05/25 11:52:34;;;;;;;4.97;0.82;;;20.80;99.90;;;;;;5037919;28;20053;-68
2022/05/25 11:55:18;;;;;;;3.75;1.15;;;20.50;99.90;;;;;;5039597;28;20504;-67
2022/05/25 11:58:11;;;;;;;4.55;1.25;;;20.60;99.90;;;;;;5032280;28;20076;-68
2022/05/25 12:00:44;;;;;;;6.13;1.00;;;21.00;99.90;;;;;;5030478;28;20057;-68
2022/05/25 12:03:38;;;;;;;6.78;1.27;;;21.40;99.90;;;;;;5030462;28;20037;-68
2022/05/25 12:06:28;;;;;;;2.40;0.90;;;21.50;99.90;;;;;;5028572;28;20041;-68
2022/05/25 12:09:10;;;;;;;3.05;1.08;;;21.50;99.90;;;;;;5030901;28;20512;-68
2022/05/25 12:12:09;;;;;;;2.63;1.10;;;21.80;99.90;;;;;;5023972;28;20885;-67
2022/05/25 12:15:11;;;;;;;3.10;1.05;;;22.70;99.90;;;;;;5033962;28;20512;-67
2022/05/25 12:17:50;;;;;;;;;;;23.30;99.90;;;;;;5047143;28;20496;-67
2022/05/25 12:20:35;;;;;;;3.80;1.00;;;23.60;99.90;;;;;;5041994;28;19933;-68
2022/05/25 12:23:07;;;;;;;4.63;1.20;;;24.10;99.90;;;;;;5041981;28;20048;-68
2022/05/25 12:25:39;;;;;;;2.20;1.00;;;24.70;99.90;;;;;;5042608;28;20103;-68
2022/05/25 12:28:08;;;;;;;3.58;1.42;;;24.10;99.40;;;;;;5028928;28;20492;-69
2022/05/25 12:30:41;;;;;;;3.08;0.73;;;23.30;99.50;;;;;;5048821;28;20041;-68
2022/05/25 12:33:11;;;;;;;2.13;0.80;;;23.30;99.40;;;;;;5048387;28;20059;-68
2022/05/25 12:35:40;;;;;;;2.28;0.85;;;23.40;98.80;;;;;;5041627;28;20135;-68
2022/05/25 12:38:09;;;;;;;4.55;0.95;;;23.50;99.60;;;;;;5044664;28;20495;-67
2022/05/25 12:40:46;;;;;;;2.20;0.70;;;24.10;98.00;;;;;;5047960;28;20072;-67
2022/05/25 12:43:34;;;;;;;1.20;0.68;;;23.90;94.90;;;;;;5049835;28;20045;-67
2022/05/25 12:49:01;;;;;;;2.22;0.82;;;24.10;92.70;;;;;;5036475;28;20071;-68
2022/05/25 12:51:36;;;;;;;3.38;1.10;;;24.10;92.90;;;;;;5045799;28;20044;-68
2022/05/25 12:54:18;;;;;;;2.55;0.80;;;25.40;92.50;;;;;;5028533;28;20081;-67
2022/05/25 12:56:48;;;;;;;2.15;0.98;;;25.90;91.00;;;;;;5026449;28;20041;-67
2022/05/25 12:59:31;;;;;;;4.70;1.00;;;26.00;90.20;;;;;;5032687;28;20455;-69
2022/05/25 13:02:21;;;;;;;2.22;1.05;;;25.50;90.10;;;;;;5028582;28;20069;-67
2022/05/25 13:04:52;;;;;;;2.67;0.60;;;26.30;89.50;;;;;;5026407;28;20080;-67
2022/05/25 13:07:37;;;;;;;2.35;0.70;;;25.80;85.90;;;;;;5034110;28;20049;-67
2022/05/25 13:10:32;;;;;;;2.97;0.90;;;25.10;84.10;;;;;;5032373;28;20048;-68
2022/05/25 13:13:25;;;;;;;2.70;0.70;;;25.20;85.80;;;;;;5030794;28;20571;-68
2022/05/25 13:15:52;;;;;;;4.22;1.00;;;24.90;85.70;;;;;;5031951;28;20044;-66
2022/05/25 13:18:50;;;;;;;1.98;0.98;;;24.80;87.70;;;;;;5031391;28;20503;-68
2022/05/25 13:21:53;;;;;;;3.33;0.70;;;25.30;86.90;;;;;;5033546;28;20460;-67
2022/05/25 13:24:27;;;;;;;1.83;0.90;;;24.80;87.90;;;;;;5032011;28;20131;-67
2022/05/25 13:27:21;;;;;;;2.90;0.80;;;25.80;87.10;;;;;;5029515;28;20075;-68
2022/05/25 13:30:13;;;;;;;1.58;0.70;;;24.00;86.40;;;;;;5032099;28;20103;-68
2022/05/25 13:33:00;;;;;;;3.00;0.88;;;23.80;87.90;;;;;;5014106;28;20706;-67
2022/05/25 13:35:45;;;;;;;1.77;0.68;;;23.30;89.40;;;;;;5028103;28;20545;-66
2022/05/25 13:38:26;;;;;;;4.32;1.05;;;23.50;89.90;;;;;;5028960;28;20051;-67
2022/05/25 13:41:08;;;;;;;1.33;0.70;;;23.30;87.90;;;;;;5033478;28;20061;-66
2022/05/25 13:44:04;;;;;;;3.42;0.80;;;24.20;87.60;;;;;;5025131;28;20112;-69
2022/05/25 13:46:51;;;;;;;3.97;0.90;;;25.20;85.80;;;;;;5030101;28;20136;-68
2022/05/25 13:49:31;;;;;;;2.00;0.60;;;25.10;85.60;;;;;;5018960;28;20503;-67
2022/05/25 13:52:19;;;;;;;2.97;0.75;;;25.80;83.70;;;;;;5016563;28;20619;-67
2022/05/25 13:54:52;;;;;;;3.38;0.85;;;26.10;82.20;;;;;;5035342;28;20096;-68
2022/05/25 13:57:46;;;;;;;1.40;0.50;;;26.60;83.00;;;;;;5028106;28;20067;-66
2022/05/25 14:00:28;;;;;;;5.88;1.80;;;26.90;82.80;;;;;;5044647;28;20562;-67